createdAt,value
2018-09-04T00:01:13.319Z,17.41
2018-09-04T00:03:40.492Z,17.38
2018-09-04T00:06:07.757Z,17.34
2018-09-04T00:08:34.882Z,17.35
2018-09-04T00:11:02.204Z,17.33
2018-09-04T00:13:31.473Z,17.30
2018-09-04T00:15:58.585Z,17.38
2018-09-04T00:18:25.920Z,17.36
2018-09-04T00:20:53.032Z,17.43
2018-09-04T00:23:20.169Z,17.35
2018-09-04T00:25:47.307Z,17.35
2018-09-04T00:28:14.391Z,17.34
2018-09-04T00:30:41.661Z,17.32
2018-09-04T00:33:08.913Z,17.32
2018-09-04T00:35:36.035Z,17.32
2018-09-04T00:38:04.277Z,17.32
2018-09-04T00:40:31.482Z,17.34
2018-09-04T00:42:58.650Z,17.34
2018-09-04T00:45:25.776Z,17.34
2018-09-04T00:47:52.914Z,17.36
2018-09-04T00:50:20.000Z,17.30
2018-09-04T00:52:47.171Z,17.24
2018-09-04T00:55:15.235Z,17.22
2018-09-04T00:57:42.351Z,17.20
2018-09-04T01:00:09.476Z,17.16
2018-09-04T01:02:36.643Z,17.16
2018-09-04T01:05:03.809Z,17.13
2018-09-04T01:07:31.019Z,17.11
2018-09-04T01:09:58.175Z,17.17
2018-09-04T01:12:25.358Z,17.14
2018-09-04T01:14:55.023Z,17.16
2018-09-04T01:17:22.273Z,17.12
2018-09-04T01:19:49.637Z,17.07
2018-09-04T01:22:16.728Z,17.11
2018-09-04T01:24:43.883Z,17.01
2018-09-04T01:27:11.001Z,16.93
2018-09-04T01:29:38.128Z,16.91
2018-09-04T01:32:05.502Z,16.87
2018-09-04T01:34:32.615Z,16.84
2018-09-04T01:36:59.714Z,16.81
2018-09-04T01:39:26.953Z,16.80
2018-09-04T01:41:54.067Z,16.73
2018-09-04T01:44:21.273Z,16.74
2018-09-04T01:46:48.430Z,16.66
2018-09-04T01:49:15.533Z,16.64
2018-09-04T01:51:42.640Z,16.61
2018-09-04T01:54:09.817Z,16.59
2018-09-04T01:56:37.006Z,16.56
2018-09-04T01:59:04.215Z,16.59
2018-09-04T02:01:32.273Z,16.58
2018-09-04T02:03:59.382Z,16.65
2018-09-04T02:06:26.516Z,16.64
2018-09-04T02:08:53.755Z,16.63
2018-09-04T02:11:20.860Z,16.56
2018-09-04T02:13:47.993Z,16.61
2018-09-04T02:16:15.193Z,16.55
2018-09-04T02:18:42.301Z,16.49
2018-09-04T02:21:09.518Z,16.47
2018-09-04T02:23:36.668Z,16.44
2018-09-04T02:26:03.830Z,16.41
2018-09-04T02:28:31.001Z,16.36
2018-09-04T02:30:58.157Z,16.33
2018-09-04T02:33:25.340Z,16.25
2018-09-04T02:35:52.457Z,16.27
2018-09-04T02:38:19.638Z,16.23
2018-09-04T02:40:46.711Z,16.20
2018-09-04T02:43:13.829Z,16.19
2018-09-04T02:45:41.941Z,16.20
2018-09-04T02:48:09.058Z,16.21
2018-09-04T02:50:36.177Z,16.18
2018-09-04T02:53:03.343Z,16.16
2018-09-04T02:55:30.511Z,16.08
2018-09-04T02:57:57.734Z,16.07
2018-09-04T03:00:24.962Z,16.06
2018-09-04T03:02:52.059Z,16.00
2018-09-04T03:05:19.163Z,15.97
2018-09-04T03:07:46.303Z,15.95
2018-09-04T03:10:13.516Z,15.92
2018-09-04T03:12:40.639Z,15.92
2018-09-04T03:15:07.822Z,15.94
2018-09-04T03:17:34.926Z,15.92
2018-09-04T03:20:02.111Z,15.86
2018-09-04T03:22:29.341Z,15.81
2018-09-04T03:24:56.463Z,15.83
2018-09-04T03:27:23.596Z,15.83
2018-09-04T03:29:50.748Z,15.84
2018-09-04T03:32:17.835Z,15.78
2018-09-04T03:34:45.060Z,15.70
2018-09-04T03:37:12.287Z,15.69
2018-09-04T03:39:39.421Z,15.63
2018-09-04T03:42:06.525Z,15.58
2018-09-04T03:44:33.672Z,15.60
2018-09-04T03:47:00.857Z,15.63
2018-09-04T03:49:31.125Z,15.55
2018-09-04T03:51:58.346Z,15.51
2018-09-04T03:54:25.430Z,15.51
2018-09-04T03:56:52.527Z,15.44
2018-09-04T03:59:19.778Z,15.49
2018-09-04T04:01:46.942Z,15.45
2018-09-04T04:04:14.116Z,15.45
2018-09-04T04:06:41.512Z,15.39
2018-09-04T04:09:09.867Z,15.34
2018-09-04T04:11:37.051Z,15.28
2018-09-04T04:14:04.257Z,15.27
2018-09-04T04:16:31.383Z,15.21
2018-09-04T04:18:58.688Z,15.19
2018-09-04T04:21:25.840Z,15.15
2018-09-04T04:23:53.093Z,15.15
2018-09-04T04:26:20.271Z,15.13
2018-09-04T04:28:47.543Z,15.09
2018-09-04T04:31:14.643Z,15.08
2018-09-04T04:33:41.771Z,15.03
2018-09-04T04:36:09.058Z,15.06
2018-09-04T04:38:36.244Z,15.01
2018-09-04T04:41:03.349Z,14.98
2018-09-04T04:43:30.574Z,15.00
2018-09-04T04:45:57.677Z,15.01
2018-09-04T04:48:24.944Z,15.05
2018-09-04T04:50:52.126Z,15.11
2018-09-04T04:53:19.277Z,15.14
2018-09-04T04:55:46.372Z,15.18
2018-09-04T04:58:13.516Z,15.22
2018-09-04T05:00:40.707Z,15.26
2018-09-04T05:03:07.877Z,15.28
2018-09-04T05:05:35.020Z,15.28
2018-09-04T05:08:02.159Z,15.34
2018-09-04T05:10:29.368Z,15.35
2018-09-04T05:12:56.680Z,15.43
2018-09-04T05:15:23.856Z,15.56
2018-09-04T05:17:50.953Z,15.66
2018-09-04T05:20:20.833Z,15.80
2018-09-04T05:22:48.020Z,15.87
2018-09-04T05:25:17.348Z,16.03
2018-09-04T05:27:44.580Z,16.14
2018-09-04T05:30:11.779Z,16.26
2018-09-04T05:33:45.019Z,16.42
2018-09-04T05:36:12.388Z,16.63
2018-09-04T05:38:39.561Z,16.85
2018-09-04T05:41:06.979Z,17.03
2018-09-04T05:44:05.018Z,17.10
2018-09-04T05:46:38.105Z,17.16
2018-09-04T05:49:05.426Z,17.14
2018-09-04T05:51:32.532Z,17.26
2018-09-04T05:54:01.759Z,17.22
2018-09-04T05:56:28.869Z,17.30
2018-09-04T05:58:56.078Z,17.32
2018-09-04T06:01:23.393Z,17.46
2018-09-04T06:03:50.493Z,17.44
2018-09-04T06:06:17.593Z,17.63
2018-09-04T06:08:44.748Z,17.58
2018-09-04T06:11:11.924Z,17.76
2018-09-04T06:13:39.128Z,17.76
2018-09-04T06:16:06.305Z,17.80
2018-09-04T06:18:33.390Z,17.89
2018-09-04T06:21:00.501Z,17.88
2018-09-04T06:23:27.748Z,17.95
2018-09-04T06:25:54.932Z,17.98
2018-09-04T06:28:22.146Z,18.05
2018-09-04T06:30:49.353Z,17.95
2018-09-04T06:33:16.549Z,18.09
2018-09-04T06:35:43.696Z,18.22
2018-09-04T06:38:10.934Z,18.37
2018-09-04T06:40:38.044Z,18.44
2018-09-04T06:43:05.210Z,18.54
2018-09-04T06:45:32.367Z,18.62
2018-09-04T06:47:59.567Z,18.76
2018-09-04T06:50:26.764Z,18.80
2018-09-04T06:52:53.932Z,18.97
2018-09-04T06:55:21.048Z,18.87
2018-09-04T06:57:48.192Z,19.10
2018-09-04T07:00:15.777Z,19.16
2018-09-04T07:02:43.853Z,19.20
2018-09-04T07:05:11.743Z,19.34
2018-09-04T07:07:38.937Z,19.46
2018-09-04T07:10:06.124Z,19.41
2018-09-04T07:12:33.326Z,19.49
2018-09-04T07:15:00.642Z,19.63
2018-09-04T07:17:28.856Z,19.91
2018-09-04T07:19:55.996Z,19.96
2018-09-04T07:22:23.150Z,20.05
2018-09-04T07:24:50.357Z,20.22
2018-09-04T07:27:17.564Z,20.42
2018-09-04T07:29:44.773Z,20.46
2018-09-04T07:32:11.909Z,20.66
2018-09-04T07:34:39.021Z,20.80
2018-09-04T07:37:06.364Z,20.94
2018-09-04T07:39:33.540Z,20.96
2018-09-04T07:42:00.673Z,21.25
2018-09-04T07:44:27.844Z,21.33
2018-09-04T07:46:55.033Z,21.40
2018-09-04T07:49:22.248Z,21.62
2018-09-04T07:51:49.488Z,21.85
2018-09-04T07:54:16.619Z,22.02
2018-09-04T07:56:44.489Z,22.05
2018-09-04T07:59:11.647Z,22.12
2018-09-04T08:01:38.845Z,22.34
2018-09-04T08:04:06.058Z,22.36
2018-09-04T08:06:33.254Z,22.62
2018-09-04T08:09:00.397Z,22.72
2018-09-04T08:11:27.556Z,23.07
2018-09-04T08:14:05.248Z,23.13
2018-09-04T08:16:32.861Z,23.26
2018-09-04T08:18:59.960Z,23.15
2018-09-04T08:21:27.116Z,23.50
2018-09-04T08:23:54.316Z,23.68
2018-09-04T08:26:22.504Z,23.75
2018-09-04T08:28:49.768Z,23.91
2018-09-04T08:31:16.923Z,23.77
2018-09-04T08:33:44.052Z,24.01
2018-09-04T08:36:11.305Z,23.87
2018-09-04T08:38:44.278Z,23.90
2018-09-04T08:41:11.444Z,24.01
2018-09-04T08:43:38.645Z,24.16
2018-09-04T08:46:06.149Z,24.12
2018-09-04T08:48:33.390Z,24.32
2018-09-04T08:51:01.271Z,24.62
2018-09-04T08:53:28.464Z,24.63
2018-09-04T08:55:55.593Z,24.80
2018-09-04T08:58:22.855Z,25.00
2018-09-04T09:00:50.071Z,25.00
2018-09-04T09:03:17.336Z,25.48
2018-09-04T09:05:44.494Z,25.45
2018-09-04T09:08:15.521Z,25.49
2018-09-04T09:10:42.715Z,25.46
2018-09-04T09:13:10.113Z,25.92
2018-09-04T09:15:37.332Z,26.02
2018-09-04T09:18:04.520Z,26.06
2018-09-04T09:20:31.644Z,25.75
2018-09-04T09:22:58.796Z,25.69
2018-09-04T09:25:26.081Z,25.97
2018-09-04T09:27:53.315Z,26.28
2018-09-04T09:30:20.427Z,26.47
2018-09-04T09:32:47.590Z,26.45
2018-09-04T09:35:14.730Z,27.12
2018-09-04T09:37:41.977Z,26.86
2018-09-04T09:40:09.224Z,26.93
2018-09-04T09:42:36.373Z,27.66
2018-09-04T09:45:03.549Z,27.90
2018-09-04T09:47:30.744Z,28.17
2018-09-04T09:49:57.961Z,27.76
2018-09-04T09:52:25.152Z,27.38
2018-09-04T09:54:52.306Z,27.15
2018-09-04T09:57:19.598Z,27.78
2018-09-04T09:59:46.731Z,28.13
2018-09-04T10:02:18.233Z,27.14
2018-09-04T10:04:45.446Z,26.46
2018-09-04T10:07:12.593Z,27.04
2018-09-04T10:09:39.767Z,27.32
2018-09-04T10:12:07.009Z,28.10
2018-09-04T10:14:34.152Z,28.66
2018-09-04T10:17:01.452Z,28.87
2018-09-04T10:19:28.596Z,29.28
2018-09-04T10:21:55.775Z,29.56
2018-09-04T10:24:22.916Z,29.66
2018-09-04T10:26:50.072Z,29.96
2018-09-04T10:29:17.300Z,29.98
2018-09-04T10:31:44.487Z,29.71
2018-09-04T10:34:13.706Z,28.83
2018-09-04T10:36:43.790Z,28.85
2018-09-04T10:39:16.556Z,28.86
2018-09-04T10:41:43.798Z,29.64
2018-09-04T10:44:11.997Z,30.43
2018-09-04T10:46:39.107Z,30.61
2018-09-04T10:49:06.292Z,31.23
2018-09-04T10:51:33.420Z,30.67
2018-09-04T10:54:00.671Z,30.46
2018-09-04T10:56:27.863Z,30.00
2018-09-04T10:58:55.061Z,30.01
2018-09-04T11:01:22.243Z,30.32
2018-09-04T11:03:49.484Z,30.21
2018-09-04T11:06:16.688Z,29.69
2018-09-04T11:08:43.800Z,30.18
2018-09-04T11:11:10.974Z,29.93
2018-09-04T11:13:38.180Z,29.32
2018-09-04T11:16:05.568Z,29.98
2018-09-04T11:18:32.880Z,30.29
2018-09-04T11:20:59.995Z,30.13
2018-09-04T11:23:27.128Z,28.92
2018-09-04T11:25:54.322Z,28.31
2018-09-04T11:28:21.549Z,28.53
2018-09-04T11:30:48.770Z,29.62
2018-09-04T11:33:16.025Z,30.24
2018-09-04T11:35:43.141Z,30.23
2018-09-04T11:38:10.272Z,30.31
2018-09-04T11:40:37.602Z,29.51
2018-09-04T11:43:05.285Z,29.50
2018-09-04T11:45:32.408Z,29.35
2018-09-04T11:48:00.101Z,29.79
2018-09-04T11:50:27.374Z,29.87
2018-09-04T11:52:54.648Z,29.76
2018-09-04T11:55:21.983Z,29.71
2018-09-04T11:57:49.099Z,29.88
2018-09-04T12:00:21.228Z,29.53
2018-09-04T12:02:48.437Z,28.88
2018-09-04T12:05:15.664Z,28.56
2018-09-04T12:07:42.909Z,28.47
2018-09-04T12:10:10.052Z,28.52
2018-09-04T12:12:37.383Z,28.48
2018-09-04T12:15:04.604Z,28.52
2018-09-04T12:17:33.934Z,28.66
2018-09-04T12:20:08.724Z,28.54
2018-09-04T12:22:35.836Z,28.28
2018-09-04T12:25:03.030Z,28.06
2018-09-04T12:27:31.245Z,27.87
2018-09-04T12:29:58.608Z,27.89
2018-09-04T12:32:25.809Z,27.68
2018-09-04T12:34:52.976Z,27.71
2018-09-04T12:37:20.108Z,27.75
2018-09-04T12:39:52.906Z,27.59
2018-09-04T12:42:20.262Z,27.80
2018-09-04T12:44:47.523Z,27.86
2018-09-04T12:47:14.691Z,27.53
2018-09-04T12:49:41.806Z,27.54
2018-09-04T12:52:08.982Z,27.21
2018-09-04T12:54:37.134Z,27.02
2018-09-04T12:57:04.393Z,27.02
2018-09-04T12:59:32.052Z,27.17
2018-09-04T13:01:59.295Z,27.43
2018-09-04T13:04:26.574Z,27.48
2018-09-04T13:06:53.782Z,27.92
2018-09-04T13:09:24.612Z,27.95
2018-09-04T13:11:51.888Z,27.93
2018-09-04T13:14:19.495Z,27.54
2018-09-04T13:16:46.709Z,27.58
2018-09-04T13:19:15.256Z,27.60
2018-09-04T13:21:42.440Z,27.61
2018-09-04T13:24:11.750Z,27.56
2018-09-04T13:26:39.021Z,27.86
2018-09-04T13:29:06.581Z,27.81
2018-09-04T13:31:34.333Z,27.80
2018-09-04T13:34:02.284Z,27.67
2018-09-04T13:36:30.063Z,27.58
2018-09-04T13:38:57.945Z,27.81
2018-09-04T13:41:28.497Z,27.50
2018-09-04T13:43:56.983Z,27.19
2018-09-04T13:46:24.876Z,27.07
2018-09-04T13:48:53.728Z,26.89
2018-09-04T13:51:21.314Z,26.87
2018-09-04T13:53:48.727Z,26.99
2018-09-04T13:56:16.761Z,27.08
2018-09-04T13:58:44.310Z,27.17
2018-09-04T14:01:11.852Z,27.12
2018-09-04T14:03:39.728Z,27.09
2018-09-04T14:06:07.531Z,27.26
2018-09-04T14:08:34.866Z,27.21
2018-09-04T14:11:03.234Z,27.26
2018-09-04T14:13:30.495Z,27.30
2018-09-04T14:16:00.827Z,26.99
2018-09-04T14:18:28.061Z,26.89
2018-09-04T14:20:55.678Z,26.71
2018-09-04T14:23:23.156Z,26.57
2018-09-04T14:25:50.786Z,26.62
2018-09-04T14:28:40.971Z,26.66
2018-09-04T14:30:45.438Z,26.67
2018-09-04T14:33:12.652Z,26.64
2018-09-04T14:35:41.971Z,26.50
2018-09-04T14:38:09.489Z,26.51
2018-09-04T14:40:36.636Z,26.51
2018-09-04T14:43:03.878Z,26.50
2018-09-04T14:45:31.335Z,26.47
2018-09-04T14:47:58.601Z,26.50
2018-09-04T14:50:25.852Z,26.57
2018-09-04T14:52:53.004Z,26.53
2018-09-04T14:55:20.173Z,26.50
2018-09-04T14:57:47.572Z,26.57
2018-09-04T15:00:14.841Z,26.68
2018-09-04T15:02:41.954Z,26.60
2018-09-04T15:05:09.448Z,26.55
2018-09-04T15:07:36.612Z,26.57
2018-09-04T15:10:03.927Z,26.36
2018-09-04T15:12:31.276Z,26.31
2018-09-04T15:14:58.458Z,26.39
2018-09-04T15:17:25.608Z,26.45
2018-09-04T15:19:52.818Z,26.28
2018-09-04T15:22:20.130Z,26.25
2018-09-04T15:24:47.349Z,26.02
2018-09-04T15:27:14.569Z,25.86
2018-09-04T15:29:41.680Z,25.80
2018-09-04T15:32:09.174Z,25.60
2018-09-04T15:34:36.617Z,25.77
2018-09-04T15:37:03.969Z,25.68
2018-09-04T15:39:31.094Z,25.65
2018-09-04T15:41:58.318Z,25.77
2018-09-04T15:44:25.532Z,25.71
2018-09-04T15:46:52.856Z,25.57
2018-09-04T15:49:25.877Z,25.63
2018-09-04T15:51:53.040Z,25.53
2018-09-04T15:54:20.221Z,25.48
2018-09-04T15:56:47.530Z,25.34
2018-09-04T15:59:14.732Z,25.27
2018-09-04T16:01:41.917Z,25.01
2018-09-04T16:04:10.009Z,25.22
2018-09-04T16:06:37.712Z,25.06
2018-09-04T16:09:10.095Z,24.87
2018-09-04T16:11:37.490Z,24.85
2018-09-04T16:14:04.746Z,24.77
2018-09-04T16:16:31.968Z,24.72
2018-09-04T16:18:59.157Z,24.71
2018-09-04T16:21:26.329Z,24.60
2018-09-04T16:23:53.651Z,24.65
2018-09-04T16:26:20.875Z,24.56
2018-09-04T16:28:48.041Z,24.50
2018-09-04T16:31:15.387Z,24.37
2018-09-04T16:33:42.568Z,24.30
2018-09-04T16:36:10.221Z,24.35
2018-09-04T16:38:37.621Z,24.17
2018-09-04T16:41:04.813Z,24.20
2018-09-04T16:43:31.988Z,24.09
2018-09-04T16:45:59.326Z,23.94
2018-09-04T16:48:29.854Z,23.89
2018-09-04T16:50:57.420Z,23.78
2018-09-04T16:53:24.679Z,23.68
2018-09-04T16:55:51.882Z,23.58
2018-09-04T16:58:19.118Z,23.44
2018-09-04T17:00:46.466Z,23.40
2018-09-04T17:03:13.661Z,23.33
2018-09-04T17:05:41.032Z,23.18
2018-09-04T17:08:08.613Z,23.06
2018-09-04T17:10:35.807Z,23.02
2018-09-04T17:13:03.160Z,22.93
2018-09-04T17:15:30.482Z,22.85
2018-09-04T17:17:57.682Z,22.77
2018-09-04T17:20:24.972Z,22.66
2018-09-04T17:22:52.372Z,22.60
2018-09-04T17:25:20.727Z,22.43
2018-09-04T17:27:47.956Z,22.29
2018-09-04T17:30:15.219Z,22.08
2018-09-04T17:32:42.372Z,21.94
2018-09-04T17:35:09.541Z,21.80
2018-09-04T17:37:36.952Z,21.64
2018-09-04T17:40:04.288Z,21.53
2018-09-04T17:42:31.466Z,21.41
2018-09-04T17:44:59.012Z,21.30
2018-09-04T17:47:26.199Z,21.16
2018-09-04T17:49:53.488Z,21.05
2018-09-04T17:52:20.814Z,20.90
2018-09-04T17:54:48.065Z,20.83
2018-09-04T17:57:16.058Z,20.74
2018-09-04T17:59:43.249Z,20.63
2018-09-04T18:02:10.874Z,20.48
2018-09-04T18:04:38.720Z,20.36
2018-09-04T18:07:05.948Z,20.28
2018-09-04T18:09:33.105Z,20.15
2018-09-04T18:12:00.260Z,20.03
2018-09-04T18:14:27.571Z,19.93
2018-09-04T18:16:54.807Z,19.81
2018-09-04T18:19:22.029Z,19.67
2018-09-04T18:21:49.375Z,19.59
2018-09-04T18:24:16.551Z,19.54
2018-09-04T18:26:43.837Z,19.42
2018-09-04T18:29:11.308Z,19.39
2018-09-04T18:31:39.460Z,19.32
2018-09-04T18:34:06.684Z,19.21
2018-09-04T18:36:33.938Z,19.15
2018-09-04T18:39:01.453Z,19.05
2018-09-04T18:41:28.780Z,19.00
2018-09-04T18:43:56.177Z,18.98
2018-09-04T18:46:23.362Z,19.07
2018-09-04T18:48:53.847Z,19.06
2018-09-04T18:51:21.505Z,18.97
2018-09-04T18:53:48.731Z,18.96
2018-09-04T18:56:15.862Z,18.93
2018-09-04T18:58:43.165Z,18.92
2018-09-04T19:01:10.644Z,18.91
2018-09-04T19:03:38.336Z,18.88
2018-09-04T19:06:05.749Z,18.88
2018-09-04T19:08:32.909Z,18.82
2018-09-04T19:11:00.081Z,18.87
2018-09-04T19:13:27.301Z,18.84
2018-09-04T19:15:54.584Z,18.86
2018-09-04T19:18:21.849Z,18.87
2018-09-04T19:20:49.058Z,18.85
2018-09-04T19:23:16.201Z,18.85
2018-09-04T19:25:43.321Z,18.96
2018-09-04T19:28:11.019Z,18.88
2018-09-04T19:30:38.556Z,18.85
2018-09-04T19:33:05.744Z,18.91
2018-09-04T19:35:32.944Z,18.80
2018-09-04T19:38:00.080Z,18.78
2018-09-04T19:40:27.544Z,18.70
2018-09-04T19:42:54.853Z,18.72
2018-09-04T19:45:22.047Z,18.69
2018-09-04T19:47:49.340Z,18.78
2018-09-04T19:50:16.512Z,18.70
2018-09-04T19:52:43.755Z,18.73
2018-09-04T19:55:11.867Z,18.69
2018-09-04T19:57:40.060Z,18.64
2018-09-04T20:00:08.049Z,18.61
2018-09-04T20:02:35.211Z,18.59
2018-09-04T20:05:02.547Z,18.57
2018-09-04T20:07:29.887Z,18.53
2018-09-04T20:09:57.015Z,18.52
2018-09-04T20:12:24.312Z,18.51
2018-09-04T20:14:51.585Z,18.57
2018-09-04T20:17:18.888Z,18.51
2018-09-04T20:19:46.163Z,18.40
2018-09-04T20:22:13.342Z,18.28
2018-09-04T20:24:40.857Z,18.17
2018-09-04T20:27:08.668Z,18.12
2018-09-04T20:29:35.962Z,18.10
2018-09-04T20:32:03.353Z,18.09
2018-09-04T20:34:30.544Z,18.06
2018-09-04T20:36:57.790Z,18.06
2018-09-04T20:39:24.957Z,18.04
2018-09-04T20:41:52.336Z,18.02
2018-09-04T20:44:19.560Z,17.91
2018-09-04T20:46:46.769Z,17.83
2018-09-04T20:49:15.229Z,17.79
2018-09-04T20:51:42.376Z,17.73
2018-09-04T20:54:10.337Z,17.66
2018-09-04T20:56:38.089Z,17.55
2018-09-04T20:59:16.839Z,17.48
2018-09-04T21:01:55.499Z,17.38
2018-09-04T21:04:34.542Z,17.30
2018-09-04T21:07:00.856Z,17.22
2018-09-04T21:10:02.984Z,17.18
2018-09-04T21:12:30.326Z,17.13
2018-09-04T21:14:58.171Z,17.09
2018-09-04T21:17:25.471Z,17.05
2018-09-04T21:19:52.737Z,17.02
2018-09-04T21:22:19.956Z,17.02
2018-09-04T21:24:47.254Z,16.97
2018-09-04T21:27:14.690Z,16.95
2018-09-04T21:29:42.057Z,16.91
2018-09-04T21:32:09.735Z,16.87
2018-09-04T21:34:37.218Z,16.78
2018-09-04T21:37:04.788Z,16.75
2018-09-04T21:39:32.176Z,16.72
2018-09-04T21:41:59.466Z,16.66
2018-09-04T21:44:26.920Z,16.65
2018-09-04T21:46:54.204Z,16.61
2018-09-04T21:49:21.524Z,16.58
2018-09-04T21:51:48.841Z,16.55
2018-09-04T21:54:16.029Z,16.53
2018-09-04T21:56:43.202Z,16.51
2018-09-04T21:59:10.431Z,16.47
2018-09-04T22:01:38.073Z,16.50
2018-09-04T22:04:05.388Z,16.53
2018-09-04T22:06:32.859Z,16.54
2018-09-04T22:08:59.986Z,16.48
2018-09-04T22:11:27.584Z,16.52
2018-09-04T22:13:54.727Z,16.49
2018-09-04T22:16:21.987Z,16.49
2018-09-04T22:18:49.305Z,16.48
2018-09-04T22:21:16.427Z,16.49
2018-09-04T22:23:43.616Z,16.41
2018-09-04T22:26:10.792Z,16.41
2018-09-04T22:28:40.246Z,16.36
2018-09-04T22:31:07.635Z,16.38
2018-09-04T22:33:34.822Z,16.32
2018-09-04T22:36:01.985Z,16.29
2018-09-04T22:38:29.565Z,16.25
2018-09-04T22:40:56.892Z,16.20
2018-09-04T22:43:24.123Z,16.13
2018-09-04T22:45:51.593Z,16.06
2018-09-04T22:48:18.963Z,16.00
2018-09-04T22:50:52.044Z,15.96
2018-09-04T22:53:19.432Z,15.87
2018-09-04T22:55:46.985Z,15.80
2018-09-04T22:58:14.200Z,15.75
2018-09-04T23:00:41.539Z,15.69
2018-09-04T23:03:09.715Z,15.62
2018-09-04T23:05:37.112Z,15.57
2018-09-04T23:08:04.689Z,15.56
2018-09-04T23:10:31.880Z,15.49
2018-09-04T23:12:59.574Z,15.51
2018-09-04T23:15:26.900Z,15.43
2018-09-04T23:17:54.232Z,15.37
2018-09-04T23:20:21.509Z,15.33
2018-09-04T23:22:48.711Z,15.31
2018-09-04T23:25:15.864Z,15.28
2018-09-04T23:27:42.980Z,15.24
2018-09-04T23:30:10.746Z,15.24
2018-09-04T23:32:39.537Z,15.19
2018-09-04T23:35:06.897Z,15.22
2018-09-04T23:37:34.156Z,15.14
2018-09-04T23:40:01.520Z,15.12
2018-09-04T23:42:30.780Z,15.09
2018-09-04T23:44:58.165Z,15.10
2018-09-04T23:47:25.478Z,15.04
2018-09-04T23:49:52.664Z,15.03
2018-09-04T23:52:19.923Z,14.96
2018-09-04T23:54:47.232Z,14.98
2018-09-04T23:57:14.419Z,14.88
2018-09-04T23:59:41.715Z,14.86
